Aviation Digital Data Service (ADDS)

Output produced by METARs form (2149 UTC 24 March 2019)
found at http://www.aviationweather.gov/metar/data/
 
TAF SMJP 241600Z 2418/2518 07014KT 9999 SCT030 TX32/2418Z TN22/2509Z 
     TEMPO 2418/2420 5000 SHRA FEW015TCU SCT025 
     BECMG 2422/2500 04003KT 
     PROB30 2509/2510 00000KT 4000 BR SCT002 
     BECMG 2512/2513 08010KT 
     TEMPO 2514/2517 5000 SHRA FEW015TCU SCT025